sensor_id;sensor_type;location;lat;lon;timestamp;temperature;humidity
14682;DHT22;7429;52.498;13.480;2022-08-25T00:00:04;21.00;99.90
14682;DHT22;7429;52.498;13.480;2022-08-25T00:03:08;21.00;99.90
14682;DHT22;7429;52.498;13.480;2022-08-25T00:06:13;21.00;99.90
14682;DHT22;7429;52.498;13.480;2022-08-25T00:09:19;21.00;99.90
14682;DHT22;7429;52.498;13.480;2022-08-25T00:12:23;20.90;99.90
14682;DHT22;7429;52.498;13.480;2022-08-25T00:15:27;20.90;99.90
14682;DHT22;7429;52.498;13.480;2022-08-25T00:18:32;20.90;99.90
14682;DHT22;7429;52.498;13.480;2022-08-25T00:21:39;20.90;99.90
14682;DHT22;7429;52.498;13.480;2022-08-25T00:24:42;20.90;99.90
14682;DHT22;7429;52.498;13.480;2022-08-25T00:27:46;20.80;99.90
14682;DHT22;7429;52.498;13.480;2022-08-25T00:30:49;20.80;99.90
14682;DHT22;7429;52.498;13.480;2022-08-25T00:33:53;20.80;99.90
14682;DHT22;7429;52.498;13.480;2022-08-25T00:36:58;20.70;99.90
14682;DHT22;7429;52.498;13.480;2022-08-25T00:40:02;20.70;99.90
14682;DHT22;7429;52.498;13.480;2022-08-25T00:43:06;20.60;99.90
14682;DHT22;7429;52.498;13.480;2022-08-25T00:46:12;20.60;99.90
14682;DHT22;7429;52.498;13.480;2022-08-25T00:49:18;20.60;99.90
14682;DHT22;7429;52.498;13.480;2022-08-25T00:52:30;20.60;99.90
14682;DHT22;7429;52.498;13.480;2022-08-25T00:55:36;20.60;99.90
14682;DHT22;7429;52.498;13.480;2022-08-25T00:58:40;20.60;99.90
14682;DHT22;7429;52.498;13.480;2022-08-25T01:01:46;20.50;99.90
14682;DHT22;7429;52.498;13.480;2022-08-25T01:04:51;20.50;99.90
14682;DHT22;7429;52.498;13.480;2022-08-25T01:07:57;20.50;99.90
14682;DHT22;7429;52.498;13.480;2022-08-25T01:11:08;20.50;99.90
14682;DHT22;7429;52.498;13.480;2022-08-25T01:14:15;20.40;99.90
14682;DHT22;7429;52.498;13.480;2022-08-25T01:17:20;20.40;99.90
14682;DHT22;7429;52.498;13.480;2022-08-25T01:20:25;20.40;99.90
14682;DHT22;7429;52.498;13.480;2022-08-25T01:23:31;20.40;99.90
14682;DHT22;7429;52.498;13.480;2022-08-25T01:26:35;20.30;99.90
14682;DHT22;7429;52.498;13.480;2022-08-25T01:29:38;20.30;99.90
14682;DHT22;7429;52.498;13.480;2022-08-25T01:32:42;20.30;99.90
14682;DHT22;7429;52.498;13.480;2022-08-25T01:35:45;20.20;99.90
14682;DHT22;7429;52.498;13.480;2022-08-25T01:38:50;20.20;99.90
14682;DHT22;7429;52.498;13.480;2022-08-25T01:42:07;20.20;99.90
14682;DHT22;7429;52.498;13.480;2022-08-25T01:45:15;20.10;99.90
14682;DHT22;7429;52.498;13.480;2022-08-25T01:48:19;20.20;99.90
14682;DHT22;7429;52.498;13.480;2022-08-25T01:51:24;20.10;99.90
14682;DHT22;7429;52.498;13.480;2022-08-25T01:54:28;20.10;99.90
14682;DHT22;7429;52.498;13.480;2022-08-25T01:57:31;20.10;99.90
14682;DHT22;7429;52.498;13.480;2022-08-25T02:00:34;20.10;99.90
14682;DHT22;7429;52.498;13.480;2022-08-25T02:03:39;20.10;99.90
14682;DHT22;7429;52.498;13.480;2022-08-25T02:06:44;20.00;99.90
14682;DHT22;7429;52.498;13.480;2022-08-25T02:09:48;20.00;99.90
14682;DHT22;7429;52.498;13.480;2022-08-25T02:12:51;20.00;99.90
14682;DHT22;7429;52.498;13.480;2022-08-25T02:15:57;20.00;99.90
14682;DHT22;7429;52.498;13.480;2022-08-25T02:19:02;20.00;99.90
14682;DHT22;7429;52.498;13.480;2022-08-25T02:22:07;20.00;99.90
14682;DHT22;7429;52.498;13.480;2022-08-25T02:25:11;20.00;99.90
14682;DHT22;7429;52.498;13.480;2022-08-25T02:28:15;19.90;99.90
14682;DHT22;7429;52.498;13.480;2022-08-25T02:31:20;19.90;99.90
14682;DHT22;7429;52.498;13.480;2022-08-25T02:34:25;19.90;99.90
14682;DHT22;7429;52.498;13.480;2022-08-25T02:37:31;19.90;99.90
14682;DHT22;7429;52.498;13.480;2022-08-25T02:40:36;19.80;99.90
14682;DHT22;7429;52.498;13.480;2022-08-25T02:43:40;19.80;99.90
14682;DHT22;7429;52.498;13.480;2022-08-25T02:46:44;19.80;99.90
14682;DHT22;7429;52.498;13.480;2022-08-25T02:49:47;19.80;99.90
14682;DHT22;7429;52.498;13.480;2022-08-25T02:52:50;19.90;99.90
14682;DHT22;7429;52.498;13.480;2022-08-25T02:55:55;19.80;99.90
14682;DHT22;7429;52.498;13.480;2022-08-25T02:58:59;19.80;99.90
14682;DHT22;7429;52.498;13.480;2022-08-25T03:02:02;19.80;99.90
14682;DHT22;7429;52.498;13.480;2022-08-25T03:05:07;19.80;99.90
14682;DHT22;7429;52.498;13.480;2022-08-25T03:08:11;19.70;99.90
14682;DHT22;7429;52.498;13.480;2022-08-25T03:11:16;19.60;99.90
14682;DHT22;7429;52.498;13.480;2022-08-25T03:14:19;19.70;99.90
14682;DHT22;7429;52.498;13.480;2022-08-25T03:17:22;19.70;99.90
14682;DHT22;7429;52.498;13.480;2022-08-25T03:20:26;19.70;99.90
14682;DHT22;7429;52.498;13.480;2022-08-25T03:23:30;19.70;99.90
14682;DHT22;7429;52.498;13.480;2022-08-25T03:26:34;19.70;99.90
14682;DHT22;7429;52.498;13.480;2022-08-25T03:29:56;19.60;99.90
14682;DHT22;7429;52.498;13.480;2022-08-25T03:32:59;19.60;99.90
14682;DHT22;7429;52.498;13.480;2022-08-25T03:36:03;19.60;99.90
14682;DHT22;7429;52.498;13.480;2022-08-25T03:39:06;19.60;99.90
14682;DHT22;7429;52.498;13.480;2022-08-25T03:42:11;19.60;99.90
14682;DHT22;7429;52.498;13.480;2022-08-25T03:45:16;19.60;99.90
14682;DHT22;7429;52.498;13.480;2022-08-25T03:48:19;19.60;99.90
14682;DHT22;7429;52.498;13.480;2022-08-25T03:51:25;19.60;99.90
14682;DHT22;7429;52.498;13.480;2022-08-25T03:54:29;19.50;99.90
14682;DHT22;7429;52.498;13.480;2022-08-25T03:57:33;19.40;99.90
14682;DHT22;7429;52.498;13.480;2022-08-25T04:00:36;19.40;99.90
14682;DHT22;7429;52.498;13.480;2022-08-25T04:03:40;19.40;99.90
14682;DHT22;7429;52.498;13.480;2022-08-25T04:06:43;19.40;99.90
14682;DHT22;7429;52.498;13.480;2022-08-25T04:09:46;19.40;99.90
14682;DHT22;7429;52.498;13.480;2022-08-25T04:12:50;19.40;99.90
14682;DHT22;7429;52.498;13.480;2022-08-25T04:15:53;19.40;99.90
14682;DHT22;7429;52.498;13.480;2022-08-25T04:18:58;19.30;99.90
14682;DHT22;7429;52.498;13.480;2022-08-25T04:22:03;19.30;99.90
14682;DHT22;7429;52.498;13.480;2022-08-25T04:25:07;19.20;99.90
14682;DHT22;7429;52.498;13.480;2022-08-25T04:28:12;19.20;99.90
14682;DHT22;7429;52.498;13.480;2022-08-25T04:31:17;19.20;99.90
14682;DHT22;7429;52.498;13.480;2022-08-25T04:34:24;19.20;99.90
14682;DHT22;7429;52.498;13.480;2022-08-25T04:37:32;19.20;99.90
14682;DHT22;7429;52.498;13.480;2022-08-25T04:40:35;19.30;99.90
14682;DHT22;7429;52.498;13.480;2022-08-25T04:43:41;19.30;99.90
14682;DHT22;7429;52.498;13.480;2022-08-25T04:46:44;19.30;99.90
14682;DHT22;7429;52.498;13.480;2022-08-25T04:49:47;19.30;99.90
14682;DHT22;7429;52.498;13.480;2022-08-25T04:52:51;19.30;99.90
14682;DHT22;7429;52.498;13.480;2022-08-25T04:55:54;19.30;99.90
14682;DHT22;7429;52.498;13.480;2022-08-25T04:59:07;19.30;99.90
14682;DHT22;7429;52.498;13.480;2022-08-25T05:02:12;19.30;99.90
14682;DHT22;7429;52.498;13.480;2022-08-25T05:05:15;19.30;99.90
14682;DHT22;7429;52.498;13.480;2022-08-25T05:08:18;19.20;99.90
14682;DHT22;7429;52.498;13.480;2022-08-25T05:11:22;19.20;99.90
14682;DHT22;7429;52.498;13.480;2022-08-25T05:14:27;19.20;99.90
14682;DHT22;7429;52.498;13.480;2022-08-25T05:17:30;19.30;99.90
14682;DHT22;7429;52.498;13.480;2022-08-25T05:20:35;19.40;99.90
14682;DHT22;7429;52.498;13.480;2022-08-25T05:23:39;19.50;99.90
14682;DHT22;7429;52.498;13.480;2022-08-25T05:26:42;19.40;99.90
14682;DHT22;7429;52.498;13.480;2022-08-25T05:29:46;19.40;99.90
14682;DHT22;7429;52.498;13.480;2022-08-25T05:32:49;19.40;99.90
14682;DHT22;7429;52.498;13.480;2022-08-25T05:35:53;19.40;99.90
14682;DHT22;7429;52.498;13.480;2022-08-25T05:38:56;19.40;99.90
14682;DHT22;7429;52.498;13.480;2022-08-25T05:41:59;19.40;99.90
14682;DHT22;7429;52.498;13.480;2022-08-25T05:45:04;19.40;99.90
14682;DHT22;7429;52.498;13.480;2022-08-25T05:48:07;19.30;99.90
14682;DHT22;7429;52.498;13.480;2022-08-25T05:51:12;19.30;99.90
14682;DHT22;7429;52.498;13.480;2022-08-25T05:54:16;19.30;99.90
14682;DHT22;7429;52.498;13.480;2022-08-25T05:57:19;19.40;99.90
14682;DHT22;7429;52.498;13.480;2022-08-25T06:00:23;19.50;99.90
14682;DHT22;7429;52.498;13.480;2022-08-25T06:03:26;19.50;99.90
14682;DHT22;7429;52.498;13.480;2022-08-25T06:06:28;19.40;99.90
14682;DHT22;7429;52.498;13.480;2022-08-25T06:09:31;19.40;99.90
14682;DHT22;7429;52.498;13.480;2022-08-25T06:12:34;19.50;99.90
14682;DHT22;7429;52.498;13.480;2022-08-25T06:15:40;19.50;99.90
14682;DHT22;7429;52.498;13.480;2022-08-25T06:18:43;19.50;99.90
14682;DHT22;7429;52.498;13.480;2022-08-25T06:21:47;19.60;99.90
14682;DHT22;7429;52.498;13.480;2022-08-25T06:24:50;19.60;99.90
14682;DHT22;7429;52.498;13.480;2022-08-25T06:27:54;19.60;99.90
14682;DHT22;7429;52.498;13.480;2022-08-25T06:31:01;19.70;99.90
14682;DHT22;7429;52.498;13.480;2022-08-25T06:34:04;19.80;99.90
14682;DHT22;7429;52.498;13.480;2022-08-25T06:37:07;19.80;99.90
14682;DHT22;7429;52.498;13.480;2022-08-25T06:40:11;19.80;99.90
14682;DHT22;7429;52.498;13.480;2022-08-25T06:43:17;19.80;99.90
14682;DHT22;7429;52.498;13.480;2022-08-25T06:46:23;19.80;99.90
14682;DHT22;7429;52.498;13.480;2022-08-25T06:49:36;19.80;99.90
14682;DHT22;7429;52.498;13.480;2022-08-25T06:52:42;19.80;99.90
14682;DHT22;7429;52.498;13.480;2022-08-25T06:55:55;20.00;99.90
14682;DHT22;7429;52.498;13.480;2022-08-25T06:58:59;20.00;99.90
14682;DHT22;7429;52.498;13.480;2022-08-25T07:02:05;20.10;99.90
14682;DHT22;7429;52.498;13.480;2022-08-25T07:05:09;20.20;99.90
14682;DHT22;7429;52.498;13.480;2022-08-25T07:08:22;20.20;99.90
14682;DHT22;7429;52.498;13.480;2022-08-25T07:11:25;20.20;99.90
14682;DHT22;7429;52.498;13.480;2022-08-25T07:14:29;20.20;99.90
14682;DHT22;7429;52.498;13.480;2022-08-25T07:17:34;20.20;99.90
14682;DHT22;7429;52.498;13.480;2022-08-25T07:20:38;20.30;99.90
14682;DHT22;7429;52.498;13.480;2022-08-25T07:23:42;20.30;99.90
14682;DHT22;7429;52.498;13.480;2022-08-25T07:26:45;20.30;99.90
14682;DHT22;7429;52.498;13.480;2022-08-25T07:29:48;20.40;99.90
14682;DHT22;7429;52.498;13.480;2022-08-25T07:32:53;20.50;99.90
14682;DHT22;7429;52.498;13.480;2022-08-25T07:35:56;20.60;99.90
14682;DHT22;7429;52.498;13.480;2022-08-25T07:38:59;20.80;99.90
14682;DHT22;7429;52.498;13.480;2022-08-25T07:42:05;20.80;99.90
14682;DHT22;7429;52.498;13.480;2022-08-25T07:45:13;20.80;99.90
14682;DHT22;7429;52.498;13.480;2022-08-25T07:48:23;21.00;99.90
14682;DHT22;7429;52.498;13.480;2022-08-25T07:51:26;21.00;99.90
14682;DHT22;7429;52.498;13.480;2022-08-25T07:54:29;21.20;99.90
14682;DHT22;7429;52.498;13.480;2022-08-25T07:57:38;21.20;99.90
14682;DHT22;7429;52.498;13.480;2022-08-25T08:00:41;21.30;99.90
14682;DHT22;7429;52.498;13.480;2022-08-25T08:03:47;21.40;99.90
14682;DHT22;7429;52.498;13.480;2022-08-25T08:06:52;21.50;99.90
14682;DHT22;7429;52.498;13.480;2022-08-25T08:09:55;21.40;99.90
14682;DHT22;7429;52.498;13.480;2022-08-25T08:13:18;21.50;99.90
14682;DHT22;7429;52.498;13.480;2022-08-25T08:16:23;21.60;99.90
14682;DHT22;7429;52.498;13.480;2022-08-25T08:19:29;21.80;99.90
14682;DHT22;7429;52.498;13.480;2022-08-25T08:22:32;22.00;99.90
14682;DHT22;7429;52.498;13.480;2022-08-25T08:25:35;22.10;99.90
14682;DHT22;7429;52.498;13.480;2022-08-25T08:28:38;22.20;99.90
14682;DHT22;7429;52.498;13.480;2022-08-25T08:31:41;22.30;99.90
14682;DHT22;7429;52.498;13.480;2022-08-25T08:34:51;22.50;99.90
14682;DHT22;7429;52.498;13.480;2022-08-25T08:37:54;22.50;99.90
14682;DHT22;7429;52.498;13.480;2022-08-25T08:41:05;22.50;99.90
14682;DHT22;7429;52.498;13.480;2022-08-25T08:44:48;22.60;99.90
14682;DHT22;7429;52.498;13.480;2022-08-25T08:48:20;22.70;99.90
14682;DHT22;7429;52.498;13.480;2022-08-25T08:51:34;22.70;99.90
14682;DHT22;7429;52.498;13.480;2022-08-25T08:54:51;23.00;99.90
14682;DHT22;7429;52.498;13.480;2022-08-25T08:58:03;23.20;99.90
14682;DHT22;7429;52.498;13.480;2022-08-25T09:01:10;23.20;99.90
14682;DHT22;7429;52.498;13.480;2022-08-25T09:04:21;23.30;99.90
14682;DHT22;7429;52.498;13.480;2022-08-25T09:07:34;23.20;99.90
14682;DHT22;7429;52.498;13.480;2022-08-25T09:10:53;23.30;99.90
14682;DHT22;7429;52.498;13.480;2022-08-25T09:14:08;23.30;99.90
14682;DHT22;7429;52.498;13.480;2022-08-25T09:17:27;23.30;99.90
14682;DHT22;7429;52.498;13.480;2022-08-25T09:20:46;23.50;99.90
14682;DHT22;7429;52.498;13.480;2022-08-25T09:24:11;23.90;99.90
14682;DHT22;7429;52.498;13.480;2022-08-25T09:27:24;23.90;99.90
14682;DHT22;7429;52.498;13.480;2022-08-25T09:33:56;23.70;99.90
14682;DHT22;7429;52.498;13.480;2022-08-25T09:37:00;23.60;99.90
14682;DHT22;7429;52.498;13.480;2022-08-25T09:40:06;23.70;99.90
14682;DHT22;7429;52.498;13.480;2022-08-25T09:43:19;23.70;99.90
14682;DHT22;7429;52.498;13.480;2022-08-25T09:46:26;23.90;99.90
14682;DHT22;7429;52.498;13.480;2022-08-25T09:49:35;23.90;99.90
14682;DHT22;7429;52.498;13.480;2022-08-25T09:52:40;23.90;99.90
14682;DHT22;7429;52.498;13.480;2022-08-25T09:55:52;23.90;99.90
14682;DHT22;7429;52.498;13.480;2022-08-25T09:59:20;23.90;99.90
14682;DHT22;7429;52.498;13.480;2022-08-25T10:02:36;23.90;99.90
14682;DHT22;7429;52.498;13.480;2022-08-25T10:05:59;24.10;99.90
14682;DHT22;7429;52.498;13.480;2022-08-25T10:09:07;24.20;99.90
14682;DHT22;7429;52.498;13.480;2022-08-25T10:12:17;24.40;99.90
14682;DHT22;7429;52.498;13.480;2022-08-25T10:15:30;24.50;99.90
14682;DHT22;7429;52.498;13.480;2022-08-25T10:18:35;24.50;99.90
14682;DHT22;7429;52.498;13.480;2022-08-25T10:21:40;24.70;99.90
14682;DHT22;7429;52.498;13.480;2022-08-25T10:24:45;25.10;99.90
14682;DHT22;7429;52.498;13.480;2022-08-25T10:27:57;25.30;99.90
14682;DHT22;7429;52.498;13.480;2022-08-25T10:31:16;25.30;99.90
14682;DHT22;7429;52.498;13.480;2022-08-25T10:34:33;25.50;99.90
14682;DHT22;7429;52.498;13.480;2022-08-25T10:37:54;25.60;99.90
14682;DHT22;7429;52.498;13.480;2022-08-25T10:41:17;25.50;99.90
14682;DHT22;7429;52.498;13.480;2022-08-25T10:44:33;25.40;99.90
14682;DHT22;7429;52.498;13.480;2022-08-25T10:48:10;25.30;99.90
14682;DHT22;7429;52.498;13.480;2022-08-25T10:51:53;25.30;99.90
14682;DHT22;7429;52.498;13.480;2022-08-25T10:55:05;25.50;99.90
14682;DHT22;7429;52.498;13.480;2022-08-25T10:58:22;25.80;99.90
14682;DHT22;7429;52.498;13.480;2022-08-25T11:01:42;26.30;99.90
14682;DHT22;7429;52.498;13.480;2022-08-25T11:04:58;26.30;99.90
14682;DHT22;7429;52.498;13.480;2022-08-25T11:08:07;26.20;99.90
14682;DHT22;7429;52.498;13.480;2022-08-25T11:11:20;26.20;99.90
14682;DHT22;7429;52.498;13.480;2022-08-25T11:14:32;26.30;99.90
14682;DHT22;7429;52.498;13.480;2022-08-25T11:17:45;26.40;99.90
14682;DHT22;7429;52.498;13.480;2022-08-25T11:21:01;26.50;99.90
14682;DHT22;7429;52.498;13.480;2022-08-25T11:24:25;26.40;99.90
14682;DHT22;7429;52.498;13.480;2022-08-25T11:27:36;26.60;99.90
14682;DHT22;7429;52.498;13.480;2022-08-25T11:30:43;26.70;99.90
14682;DHT22;7429;52.498;13.480;2022-08-25T11:33:50;26.70;99.90
14682;DHT22;7429;52.498;13.480;2022-08-25T11:36:57;26.90;99.90
14682;DHT22;7429;52.498;13.480;2022-08-25T11:40:19;27.00;99.90
14682;DHT22;7429;52.498;13.480;2022-08-25T11:43:42;27.00;99.90
14682;DHT22;7429;52.498;13.480;2022-08-25T11:47:08;27.10;99.90
14682;DHT22;7429;52.498;13.480;2022-08-25T11:50:27;27.10;99.90
14682;DHT22;7429;52.498;13.480;2022-08-25T11:53:34;27.10;99.90
14682;DHT22;7429;52.498;13.480;2022-08-25T11:56:38;27.20;99.90
14682;DHT22;7429;52.498;13.480;2022-08-25T12:00:03;27.30;99.90
14682;DHT22;7429;52.498;13.480;2022-08-25T12:03:48;27.40;99.90
14682;DHT22;7429;52.498;13.480;2022-08-25T12:07:24;27.60;99.90
14682;DHT22;7429;52.498;13.480;2022-08-25T12:10:58;27.70;99.90
14682;DHT22;7429;52.498;13.480;2022-08-25T12:14:16;27.90;99.90
14682;DHT22;7429;52.498;13.480;2022-08-25T12:17:39;27.90;99.90
14682;DHT22;7429;52.498;13.480;2022-08-25T12:21:09;28.20;99.90
14682;DHT22;7429;52.498;13.480;2022-08-25T12:24:19;28.50;99.90
14682;DHT22;7429;52.498;13.480;2022-08-25T12:27:27;28.80;99.90
14682;DHT22;7429;52.498;13.480;2022-08-25T12:30:41;29.00;99.90
14682;DHT22;7429;52.498;13.480;2022-08-25T12:34:02;29.10;99.90
14682;DHT22;7429;52.498;13.480;2022-08-25T12:37:14;29.20;99.90
14682;DHT22;7429;52.498;13.480;2022-08-25T12:40:25;28.90;99.90
14682;DHT22;7429;52.498;13.480;2022-08-25T12:43:34;28.50;99.90
14682;DHT22;7429;52.498;13.480;2022-08-25T12:46:42;28.30;99.90
14682;DHT22;7429;52.498;13.480;2022-08-25T12:49:49;28.00;99.90
14682;DHT22;7429;52.498;13.480;2022-08-25T12:52:53;27.80;99.90
14682;DHT22;7429;52.498;13.480;2022-08-25T12:56:02;27.60;99.90
14682;DHT22;7429;52.498;13.480;2022-08-25T12:59:15;27.40;99.90
14682;DHT22;7429;52.498;13.480;2022-08-25T13:02:42;27.70;99.90
14682;DHT22;7429;52.498;13.480;2022-08-25T13:06:14;28.30;99.90
14682;DHT22;7429;52.498;13.480;2022-08-25T13:09:57;28.70;99.90
14682;DHT22;7429;52.498;13.480;2022-08-25T13:13:15;29.20;99.90
14682;DHT22;7429;52.498;13.480;2022-08-25T13:16:27;29.80;99.90
14682;DHT22;7429;52.498;13.480;2022-08-25T13:19:31;30.10;99.90
14682;DHT22;7429;52.498;13.480;2022-08-25T13:22:36;29.90;99.90
14682;DHT22;7429;52.498;13.480;2022-08-25T13:25:46;29.60;99.90
14682;DHT22;7429;52.498;13.480;2022-08-25T13:28:55;29.30;99.90
14682;DHT22;7429;52.498;13.480;2022-08-25T13:32:03;29.20;99.90
14682;DHT22;7429;52.498;13.480;2022-08-25T13:35:14;28.80;99.90
14682;DHT22;7429;52.498;13.480;2022-08-25T13:38:21;28.50;99.90
14682;DHT22;7429;52.498;13.480;2022-08-25T13:41:24;28.20;99.90
14682;DHT22;7429;52.498;13.480;2022-08-25T13:44:36;28.10;99.90
14682;DHT22;7429;52.498;13.480;2022-08-25T13:47:40;28.10;99.90
14682;DHT22;7429;52.498;13.480;2022-08-25T13:50:46;28.10;99.90
14682;DHT22;7429;52.498;13.480;2022-08-25T13:53:56;28.10;99.90
14682;DHT22;7429;52.498;13.480;2022-08-25T13:57:06;28.60;99.90
14682;DHT22;7429;52.498;13.480;2022-08-25T14:00:30;29.20;99.90
14682;DHT22;7429;52.498;13.480;2022-08-25T14:03:37;29.80;99.90
14682;DHT22;7429;52.498;13.480;2022-08-25T14:06:47;30.10;99.90
14682;DHT22;7429;52.498;13.480;2022-08-25T14:09:53;30.20;99.90
14682;DHT22;7429;52.498;13.480;2022-08-25T14:13:11;30.30;99.90
14682;DHT22;7429;52.498;13.480;2022-08-25T14:16:21;30.60;99.90
14682;DHT22;7429;52.498;13.480;2022-08-25T14:19:26;30.90;99.90
14682;DHT22;7429;52.498;13.480;2022-08-25T14:22:30;31.10;99.90
14682;DHT22;7429;52.498;13.480;2022-08-25T14:25:35;31.10;99.90
14682;DHT22;7429;52.498;13.480;2022-08-25T14:28:42;31.30;99.90
14682;DHT22;7429;52.498;13.480;2022-08-25T14:31:47;31.30;99.90
14682;DHT22;7429;52.498;13.480;2022-08-25T14:34:51;31.40;99.90
14682;DHT22;7429;52.498;13.480;2022-08-25T14:37:55;31.30;99.90
14682;DHT22;7429;52.498;13.480;2022-08-25T14:40:59;31.10;99.90
14682;DHT22;7429;52.498;13.480;2022-08-25T14:44:03;30.70;99.90
14682;DHT22;7429;52.498;13.480;2022-08-25T14:47:08;30.70;99.90
14682;DHT22;7429;52.498;13.480;2022-08-25T14:50:12;30.80;99.90
14682;DHT22;7429;52.498;13.480;2022-08-25T14:53:21;30.80;99.90
14682;DHT22;7429;52.498;13.480;2022-08-25T14:56:24;30.90;99.90
14682;DHT22;7429;52.498;13.480;2022-08-25T14:59:30;30.90;99.90
14682;DHT22;7429;52.498;13.480;2022-08-25T15:02:36;31.40;99.90
14682;DHT22;7429;52.498;13.480;2022-08-25T15:05:43;31.60;99.90
14682;DHT22;7429;52.498;13.480;2022-08-25T15:08:48;31.70;99.90
14682;DHT22;7429;52.498;13.480;2022-08-25T15:12:12;31.30;99.90
14682;DHT22;7429;52.498;13.480;2022-08-25T15:15:27;30.50;99.90
14682;DHT22;7429;52.498;13.480;2022-08-25T15:18:33;29.80;99.90
14682;DHT22;7429;52.498;13.480;2022-08-25T15:21:37;29.70;99.90
14682;DHT22;7429;52.498;13.480;2022-08-25T15:24:40;30.10;99.90
14682;DHT22;7429;52.498;13.480;2022-08-25T15:27:43;30.50;99.90
14682;DHT22;7429;52.498;13.480;2022-08-25T15:30:46;30.80;99.90
14682;DHT22;7429;52.498;13.480;2022-08-25T15:33:51;30.90;99.90
14682;DHT22;7429;52.498;13.480;2022-08-25T15:36:56;31.00;99.90
14682;DHT22;7429;52.498;13.480;2022-08-25T15:40:00;31.20;99.90
14682;DHT22;7429;52.498;13.480;2022-08-25T15:43:08;31.00;99.90
14682;DHT22;7429;52.498;13.480;2022-08-25T15:46:15;30.70;99.90
14682;DHT22;7429;52.498;13.480;2022-08-25T15:49:22;30.40;99.90
14682;DHT22;7429;52.498;13.480;2022-08-25T15:52:30;30.00;99.90
14682;DHT22;7429;52.498;13.480;2022-08-25T15:55:48;29.60;99.90
14682;DHT22;7429;52.498;13.480;2022-08-25T15:58:54;29.60;99.90
14682;DHT22;7429;52.498;13.480;2022-08-25T16:01:58;29.40;99.90
14682;DHT22;7429;52.498;13.480;2022-08-25T16:05:07;29.30;99.90
14682;DHT22;7429;52.498;13.480;2022-08-25T16:08:11;29.30;99.90
14682;DHT22;7429;52.498;13.480;2022-08-25T16:11:22;29.30;99.90
14682;DHT22;7429;52.498;13.480;2022-08-25T16:14:26;29.20;99.90
14682;DHT22;7429;52.498;13.480;2022-08-25T16:17:30;29.10;99.90
14682;DHT22;7429;52.498;13.480;2022-08-25T16:20:35;29.10;99.90
14682;DHT22;7429;52.498;13.480;2022-08-25T16:23:38;29.00;99.90
14682;DHT22;7429;52.498;13.480;2022-08-25T16:26:43;28.80;99.90
14682;DHT22;7429;52.498;13.480;2022-08-25T16:29:49;28.70;99.90
14682;DHT22;7429;52.498;13.480;2022-08-25T16:32:53;28.50;99.90
14682;DHT22;7429;52.498;13.480;2022-08-25T16:36:05;28.30;99.90
14682;DHT22;7429;52.498;13.480;2022-08-25T16:39:09;28.10;99.90
14682;DHT22;7429;52.498;13.480;2022-08-25T16:42:14;28.10;99.90
14682;DHT22;7429;52.498;13.480;2022-08-25T16:45:17;28.10;99.90
14682;DHT22;7429;52.498;13.480;2022-08-25T16:48:20;28.00;99.90
14682;DHT22;7429;52.498;13.480;2022-08-25T16:51:25;27.90;99.90
14682;DHT22;7429;52.498;13.480;2022-08-25T16:54:30;27.90;99.90
14682;DHT22;7429;52.498;13.480;2022-08-25T16:57:52;27.80;99.90
14682;DHT22;7429;52.498;13.480;2022-08-25T17:01:03;27.70;99.90
14682;DHT22;7429;52.498;13.480;2022-08-25T17:04:10;27.70;99.90
14682;DHT22;7429;52.498;13.480;2022-08-25T17:07:15;27.70;99.90
14682;DHT22;7429;52.498;13.480;2022-08-25T17:10:24;27.70;99.90
14682;DHT22;7429;52.498;13.480;2022-08-25T17:13:29;27.70;99.90
14682;DHT22;7429;52.498;13.480;2022-08-25T17:16:33;27.70;99.90
14682;DHT22;7429;52.498;13.480;2022-08-25T17:19:36;27.70;99.90
14682;DHT22;7429;52.498;13.480;2022-08-25T17:22:46;27.60;99.90
14682;DHT22;7429;52.498;13.480;2022-08-25T17:25:50;27.50;99.90
14682;DHT22;7429;52.498;13.480;2022-08-25T17:28:53;27.50;99.90
14682;DHT22;7429;52.498;13.480;2022-08-25T17:31:57;27.50;99.90
14682;DHT22;7429;52.498;13.480;2022-08-25T17:35:01;27.40;99.90
14682;DHT22;7429;52.498;13.480;2022-08-25T17:38:08;27.40;99.90
14682;DHT22;7429;52.498;13.480;2022-08-25T17:41:12;27.40;99.90
14682;DHT22;7429;52.498;13.480;2022-08-25T17:44:16;27.20;99.90
14682;DHT22;7429;52.498;13.480;2022-08-25T17:47:20;27.20;99.90
14682;DHT22;7429;52.498;13.480;2022-08-25T17:50:23;27.10;99.90
14682;DHT22;7429;52.498;13.480;2022-08-25T17:53:28;27.10;99.90
14682;DHT22;7429;52.498;13.480;2022-08-25T17:56:31;27.00;99.90
14682;DHT22;7429;52.498;13.480;2022-08-25T17:59:34;27.00;99.90
14682;DHT22;7429;52.498;13.480;2022-08-25T18:02:38;26.90;99.90
14682;DHT22;7429;52.498;13.480;2022-08-25T18:05:41;26.80;99.90
14682;DHT22;7429;52.498;13.480;2022-08-25T18:08:47;26.80;99.90
14682;DHT22;7429;52.498;13.480;2022-08-25T18:12:03;26.70;99.90
14682;DHT22;7429;52.498;13.480;2022-08-25T18:15:07;26.70;99.90
14682;DHT22;7429;52.498;13.480;2022-08-25T18:18:15;26.50;99.90
14682;DHT22;7429;52.498;13.480;2022-08-25T18:21:20;26.40;99.90
14682;DHT22;7429;52.498;13.480;2022-08-25T18:24:25;26.30;99.90
14682;DHT22;7429;52.498;13.480;2022-08-25T18:27:28;26.30;99.90
14682;DHT22;7429;52.498;13.480;2022-08-25T18:30:31;26.20;99.90
14682;DHT22;7429;52.498;13.480;2022-08-25T18:33:35;26.10;99.90
14682;DHT22;7429;52.498;13.480;2022-08-25T18:36:42;26.10;99.90
14682;DHT22;7429;52.498;13.480;2022-08-25T18:39:47;25.90;99.90
14682;DHT22;7429;52.498;13.480;2022-08-25T18:43:22;25.90;99.90
14682;DHT22;7429;52.498;13.480;2022-08-25T18:46:26;25.80;99.90
14682;DHT22;7429;52.498;13.480;2022-08-25T18:49:29;25.80;99.90
14682;DHT22;7429;52.498;13.480;2022-08-25T18:52:32;25.70;99.90
14682;DHT22;7429;52.498;13.480;2022-08-25T18:55:38;25.60;99.90
14682;DHT22;7429;52.498;13.480;2022-08-25T18:58:44;25.50;99.90
14682;DHT22;7429;52.498;13.480;2022-08-25T19:01:47;25.40;99.90
14682;DHT22;7429;52.498;13.480;2022-08-25T19:04:51;25.30;99.90
14682;DHT22;7429;52.498;13.480;2022-08-25T19:07:54;25.20;99.90
14682;DHT22;7429;52.498;13.480;2022-08-25T19:10:58;25.20;99.90
14682;DHT22;7429;52.498;13.480;2022-08-25T19:14:01;25.10;99.90
14682;DHT22;7429;52.498;13.480;2022-08-25T19:17:12;25.00;99.90
14682;DHT22;7429;52.498;13.480;2022-08-25T19:20:16;25.00;99.90
14682;DHT22;7429;52.498;13.480;2022-08-25T19:23:20;25.00;99.90
14682;DHT22;7429;52.498;13.480;2022-08-25T19:26:25;24.90;99.90
14682;DHT22;7429;52.498;13.480;2022-08-25T19:29:29;24.90;99.90
14682;DHT22;7429;52.498;13.480;2022-08-25T19:32:34;24.80;99.90
14682;DHT22;7429;52.498;13.480;2022-08-25T19:35:44;24.70;99.90
14682;DHT22;7429;52.498;13.480;2022-08-25T19:38:54;24.70;99.90
14682;DHT22;7429;52.498;13.480;2022-08-25T19:42:00;24.60;99.90
14682;DHT22;7429;52.498;13.480;2022-08-25T19:45:05;24.50;99.90
14682;DHT22;7429;52.498;13.480;2022-08-25T19:48:11;24.40;99.90